Time;durP1;ratioP1;P1;durP2;ratioP2;P2;SDS_P1;SDS_P2;PMS_P1;PMS_P2;Temp;Humidity;BMP_temperature;BMP_pressure;BME280_temperature;BME280_humidity;BME280_pressure;Samples;Min_cycle;Max_cycle;Signal;HPM_P1;HPM_P2
2020/12/22 00:02:11;;;;;;;9.60;6.50;;;7.70;99.90;;;;;;4976550;28;20510;-63
2020/12/22 00:04:37;;;;;;;13.20;7.73;;;7.70;99.90;;;;;;4976222;28;20195;-63
2020/12/22 00:07:03;;;;;;;8.87;6.60;;;7.70;99.90;;;;;;4976393;28;20473;-64
2020/12/22 00:09:28;;;;;;;9.33;7.90;;;7.80;99.90;;;;;;4976380;28;20613;-63
2020/12/22 00:11:54;;;;;;;9.27;7.50;;;7.80;99.90;;;;;;4976382;28;20180;-64
2020/12/22 00:14:19;;;;;;;8.90;5.83;;;7.80;99.90;;;;;;4975288;28;20218;-64
2020/12/22 00:16:45;;;;;;;9.63;5.60;;;7.80;99.90;;;;;;4976457;28;20222;-64
2020/12/22 00:19:11;;;;;;;9.17;6.37;;;7.80;99.90;;;;;;4976275;28;20176;-64
2020/12/22 00:21:37;;;;;;;9.10;7.00;;;7.80;99.90;;;;;;4975259;28;20275;-64
2020/12/22 00:24:03;;;;;;;8.43;6.80;;;7.80;99.90;;;;;;4976158;28;20179;-64
2020/12/22 00:26:28;;;;;;;8.60;5.67;;;7.90;99.90;;;;;;4976529;28;20215;-64
2020/12/22 00:28:54;;;;;;;7.40;5.13;;;7.90;99.90;;;;;;4976971;28;20419;-65
2020/12/22 00:31:20;;;;;;;7.97;6.30;;;8.20;99.90;;;;;;4976547;28;20175;-65
2020/12/22 00:33:46;;;;;;;8.00;5.50;;;8.30;99.90;;;;;;4976151;28;20578;-64
2020/12/22 00:36:12;;;;;;;6.50;5.00;;;8.40;99.90;;;;;;4976318;28;20184;-64
2020/12/22 00:38:37;;;;;;;7.40;5.13;;;8.30;99.90;;;;;;4976391;28;20664;-64
2020/12/22 00:41:03;;;;;;;6.80;5.03;;;8.20;99.90;;;;;;4976397;28;20194;-64
2020/12/22 00:43:29;;;;;;;7.22;5.95;;;8.10;99.90;;;;;;4976236;28;20180;-64
2020/12/22 00:45:55;;;;;;;8.40;5.23;;;8.10;99.90;;;;;;4976202;28;20223;-64
2020/12/22 00:48:20;;;;;;;7.23;5.40;;;8.10;99.90;;;;;;4976112;28;20264;-64
2020/12/22 00:50:46;;;;;;;7.53;5.50;;;8.10;99.90;;;;;;4975206;28;20184;-64
2020/12/22 00:53:11;;;;;;;8.50;5.90;;;8.10;99.90;;;;;;4975975;28;20188;-64
2020/12/22 00:55:37;;;;;;;6.00;4.87;;;8.10;99.90;;;;;;4976147;28;20176;-64
2020/12/22 00:58:03;;;;;;;7.20;5.20;;;8.20;99.90;;;;;;4976153;28;20180;-64
2020/12/22 01:00:28;;;;;;;6.00;5.20;;;8.20;99.90;;;;;;4976131;28;20190;-64
2020/12/22 01:02:54;;;;;;;8.60;4.90;;;8.30;99.90;;;;;;4976067;28;20180;-64
2020/12/22 01:05:19;;;;;;;5.50;4.70;;;8.30;99.90;;;;;;4975865;28;20250;-64
2020/12/22 01:07:45;;;;;;;6.13;4.63;;;8.40;99.90;;;;;;4975900;28;20302;-64
2020/12/22 01:10:10;;;;;;;5.00;4.50;;;8.40;99.90;;;;;;4975728;28;20250;-64
2020/12/22 01:12:36;;;;;;;6.30;4.73;;;8.50;99.90;;;;;;4975828;28;20503;-64
2020/12/22 01:15:02;;;;;;;8.07;5.90;;;8.60;99.90;;;;;;4975561;28;20176;-64
2020/12/22 01:17:28;;;;;;;7.32;5.85;;;8.50;99.90;;;;;;4975711;28;20259;-64
2020/12/22 01:19:53;;;;;;;7.10;5.10;;;8.60;99.90;;;;;;4975133;28;20180;-65
2020/12/22 01:22:19;;;;;;;9.87;5.03;;;8.60;99.90;;;;;;4975436;28;20251;-64
2020/12/22 01:24:45;;;;;;;5.40;4.25;;;8.60;99.90;;;;;;4975201;28;20242;-64
2020/12/22 01:27:10;;;;;;;5.10;4.60;;;8.60;99.90;;;;;;4975322;28;20215;-64
2020/12/22 01:29:36;;;;;;;4.20;3.80;;;8.60;99.90;;;;;;4975315;28;20514;-64
2020/12/22 01:32:01;;;;;;;4.27;3.60;;;8.70;99.90;;;;;;4975300;28;20258;-64
2020/12/22 01:34:27;;;;;;;7.50;4.60;;;8.80;99.90;;;;;;4975028;28;20251;-64
2020/12/22 01:36:53;;;;;;;5.73;3.77;;;8.70;99.90;;;;;;4975281;28;20574;-64
2020/12/22 01:39:18;;;;;;;4.73;3.20;;;8.80;99.90;;;;;;4975336;28;20187;-64
2020/12/22 01:41:44;;;;;;;3.03;2.73;;;8.80;99.90;;;;;;4975350;28;20188;-64
2020/12/22 01:44:15;;;;;;;3.70;3.40;;;8.90;99.90;;;;;;4975182;28;20203;-64
2020/12/22 01:46:58;;;;;;;3.42;3.10;;;8.90;99.90;;;;;;4975537;28;20540;-64
2020/12/22 01:49:25;;;;;;;3.30;3.00;;;8.90;99.90;;;;;;4975419;28;20617;-64
2020/12/22 01:51:53;;;;;;;3.80;2.95;;;9.00;99.90;;;;;;4975390;28;20665;-64
2020/12/22 01:54:19;;;;;;;3.33;2.70;;;9.00;99.90;;;;;;4974758;28;20664;-64
2020/12/22 01:56:46;;;;;;;3.57;2.80;;;9.00;99.90;;;;;;4975177;28;20235;-64
2020/12/22 01:59:12;;;;;;;3.88;2.53;;;9.00;99.90;;;;;;4975177;28;20207;-64
2020/12/22 02:01:38;;;;;;;3.50;3.20;;;9.00;99.90;;;;;;4975172;28;20589;-66
2020/12/22 02:04:06;;;;;;;3.27;2.20;;;9.10;99.90;;;;;;4975091;28;20215;-66
2020/12/22 02:06:33;;;;;;;4.72;3.65;;;9.10;99.90;;;;;;4975265;28;20920;-66
2020/12/22 02:09:00;;;;;;;2.80;2.60;;;9.10;99.90;;;;;;4975142;28;20183;-66
2020/12/22 02:11:26;;;;;;;4.45;3.33;;;9.10;99.90;;;;;;4975219;28;20191;-66
2020/12/22 02:13:52;;;;;;;2.85;2.50;;;9.10;99.90;;;;;;4975073;28;20312;-66
2020/12/22 02:16:18;;;;;;;3.00;2.70;;;9.20;99.90;;;;;;4975175;28;20560;-67
2020/12/22 02:18:45;;;;;;;5.20;3.28;;;9.20;99.90;;;;;;4975051;28;20184;-66
2020/12/22 02:21:11;;;;;;;3.47;3.10;;;9.20;99.90;;;;;;4975044;28;20187;-66
2020/12/22 02:23:36;;;;;;;3.23;2.93;;;9.30;99.90;;;;;;4974806;28;20514;-66
2020/12/22 02:26:02;;;;;;;3.00;2.67;;;9.30;99.90;;;;;;4975037;28;20180;-66
2020/12/22 02:28:27;;;;;;;2.90;2.47;;;9.40;99.90;;;;;;4975109;28;20535;-66
2020/12/22 02:30:53;;;;;;;2.90;2.40;;;9.40;99.90;;;;;;4975111;28;20183;-66
2020/12/22 02:33:18;;;;;;;3.00;2.70;;;9.50;99.90;;;;;;4977154;28;20610;-66
2020/12/22 02:35:44;;;;;;;2.70;2.50;;;9.50;99.90;;;;;;4978737;28;20175;-66
2020/12/22 02:38:10;;;;;;;3.30;2.93;;;9.50;99.90;;;;;;4978444;28;20188;-65
2020/12/22 02:40:35;;;;;;;2.67;2.47;;;9.40;99.90;;;;;;4979161;28;20266;-66
2020/12/22 02:43:12;;;;;;;2.30;2.10;;;9.50;99.90;;;;;;4978498;28;20216;-66
2020/12/22 02:45:39;;;;;;;2.88;2.10;;;9.50;99.90;;;;;;4978461;28;20206;-66
2020/12/22 02:48:05;;;;;;;2.70;2.25;;;9.60;99.90;;;;;;4978270;28;20310;-66
2020/12/22 02:50:31;;;;;;;4.82;3.13;;;9.60;99.90;;;;;;4978112;28;20271;-66
2020/12/22 02:52:56;;;;;;;2.33;1.70;;;9.60;99.90;;;;;;4978069;28;20187;-66
2020/12/22 02:55:22;;;;;;;2.30;1.80;;;9.60;99.90;;;;;;4976897;28;20550;-66
2020/12/22 02:57:48;;;;;;;2.20;1.97;;;9.60;99.90;;;;;;4978225;28;20194;-66
2020/12/22 03:00:13;;;;;;;3.07;2.13;;;9.70;99.90;;;;;;4978216;28;20192;-66
2020/12/22 03:02:39;;;;;;;2.17;1.97;;;9.80;99.90;;;;;;4978281;28;20222;-66
2020/12/22 03:05:04;;;;;;;2.20;1.90;;;9.80;99.90;;;;;;4976787;28;20184;-66
2020/12/22 03:07:30;;;;;;;2.10;1.90;;;9.90;99.90;;;;;;4977950;28;20523;-66
2020/12/22 03:09:56;;;;;;;2.00;1.80;;;9.90;99.90;;;;;;4978008;28;20234;-66
2020/12/22 03:12:21;;;;;;;2.33;2.13;;;9.90;99.90;;;;;;4977108;28;20192;-66
2020/12/22 03:14:47;;;;;;;3.37;2.50;;;9.90;99.90;;;;;;4977790;28;20612;-66
2020/12/22 03:17:12;;;;;;;1.87;1.70;;;9.90;99.90;;;;;;4978234;28;20184;-66
2020/12/22 03:19:38;;;;;;;1.93;1.70;;;9.90;99.90;;;;;;4977917;28;20215;-66
2020/12/22 03:22:05;;;;;;;1.67;1.57;;;9.90;99.90;;;;;;4976715;28;20176;-66
2020/12/22 03:24:30;;;;;;;1.92;1.73;;;10.00;99.90;;;;;;4977532;28;20198;-66
2020/12/22 03:26:56;;;;;;;2.00;1.80;;;10.10;99.90;;;;;;4976496;28;20208;-66
2020/12/22 03:29:21;;;;;;;2.60;1.67;;;10.00;99.90;;;;;;4976429;28;20637;-64
2020/12/22 03:31:47;;;;;;;1.80;1.63;;;10.10;99.90;;;;;;4977516;28;20247;-66
2020/12/22 03:34:13;;;;;;;2.20;1.43;;;10.10;99.90;;;;;;4977506;28;20203;-66
2020/12/22 03:36:38;;;;;;;1.20;1.10;;;10.20;99.90;;;;;;4977611;28;20827;-66
2020/12/22 03:39:04;;;;;;;2.30;1.50;;;10.10;99.90;;;;;;4977564;28;20180;-66
2020/12/22 03:41:30;;;;;;;1.80;1.33;;;10.10;99.90;;;;;;4977496;28;20192;-66
2020/12/22 03:43:56;;;;;;;1.53;1.30;;;10.20;99.90;;;;;;4976874;28;20439;-66
2020/12/22 03:46:23;;;;;;;1.58;1.35;;;10.20;99.90;;;;;;4977383;28;20215;-66
2020/12/22 03:48:49;;;;;;;1.90;1.45;;;10.10;99.90;;;;;;4977298;28;20577;-66
2020/12/22 03:51:15;;;;;;;1.70;1.20;;;10.20;99.90;;;;;;4977243;28;20207;-66
2020/12/22 03:53:40;;;;;;;2.57;1.50;;;10.20;99.90;;;;;;4977132;28;20227;-66
2020/12/22 03:56:06;;;;;;;1.30;1.20;;;10.10;99.90;;;;;;4977460;28;20267;-65
2020/12/22 03:58:32;;;;;;;1.17;1.07;;;10.20;99.90;;;;;;4977428;28;20199;-66
2020/12/22 04:00:58;;;;;;;1.05;0.90;;;10.20;99.90;;;;;;4977125;28;20195;-64
2020/12/22 04:03:25;;;;;;;1.20;1.10;;;10.10;99.90;;;;;;4975766;28;20184;-64
2020/12/22 04:05:51;;;;;;;1.20;1.10;;;10.30;99.90;;;;;;4977016;28;20502;-65
2020/12/22 04:08:17;;;;;;;0.82;0.75;;;10.30;99.90;;;;;;4976926;28;20196;-65
2020/12/22 04:10:43;;;;;;;1.25;0.80;;;10.30;99.90;;;;;;4977162;28;20176;-65
2020/12/22 04:13:09;;;;;;;0.95;0.65;;;10.30;99.90;;;;;;4975856;28;20566;-66
2020/12/22 04:15:35;;;;;;;1.53;0.80;;;10.30;99.90;;;;;;4976933;28;20184;-66
2020/12/22 04:18:02;;;;;;;1.23;0.90;;;10.40;99.90;;;;;;4976761;28;20431;-66
2020/12/22 04:20:28;;;;;;;2.35;0.80;;;10.40;99.90;;;;;;4975576;28;20239;-64
2020/12/22 04:22:53;;;;;;;1.20;1.10;;;10.40;99.90;;;;;;4975394;28;20192;-64
2020/12/22 04:25:19;;;;;;;1.13;0.60;;;10.40;99.90;;;;;;4976226;28;20195;-64
2020/12/22 04:27:44;;;;;;;2.50;0.60;;;10.60;99.90;;;;;;4976411;28;20211;-64
2020/12/22 04:30:10;;;;;;;1.00;0.60;;;10.60;99.90;;;;;;4976858;28;20169;-64
2020/12/22 04:32:35;;;;;;;0.60;0.40;;;10.50;99.90;;;;;;4975579;28;20223;-64
2020/12/22 04:35:01;;;;;;;0.90;0.70;;;10.60;99.90;;;;;;4976014;28;20191;-66
2020/12/22 04:37:36;;;;;;;0.47;0.40;;;10.50;99.90;;;;;;4975014;28;20692;-65
2020/12/22 04:40:03;;;;;;;0.68;0.65;;;10.60;99.90;;;;;;4976294;28;20544;-65
2020/12/22 04:42:32;;;;;;;0.93;0.63;;;10.70;99.90;;;;;;4976077;28;20497;-65
2020/12/22 04:44:58;;;;;;;0.70;0.50;;;10.80;99.90;;;;;;4975932;28;20192;-65
2020/12/22 04:47:25;;;;;;;0.70;0.40;;;10.90;99.90;;;;;;4976061;28;20290;-66
2020/12/22 04:49:55;;;;;;;1.55;0.68;;;10.90;99.90;;;;;;4974842;28;20184;-66
2020/12/22 04:52:22;;;;;;;1.35;0.70;;;10.80;99.90;;;;;;4976095;28;20250;-66
2020/12/22 04:54:48;;;;;;;0.75;0.65;;;10.90;99.90;;;;;;4974369;28;20188;-65
2020/12/22 04:57:15;;;;;;;1.00;0.70;;;11.10;99.90;;;;;;4974909;28;20288;-65
2020/12/22 04:59:44;;;;;;;2.40;0.70;;;11.10;99.90;;;;;;4975833;28;20262;-66
2020/12/22 05:02:18;;;;;;;0.85;0.57;;;11.20;99.90;;;;;;4976033;28;20188;-65
2020/12/22 05:04:44;;;;;;;3.65;0.63;;;11.20;99.90;;;;;;4974640;28;20631;-65
2020/12/22 05:07:09;;;;;;;0.70;0.60;;;11.30;99.90;;;;;;4975774;28;20208;-65
2020/12/22 05:09:36;;;;;;;0.90;0.53;;;11.40;99.90;;;;;;4975933;28;20195;-64
2020/12/22 05:12:01;;;;;;;0.60;0.40;;;11.40;99.90;;;;;;4975506;28;20173;-66
2020/12/22 05:14:28;;;;;;;1.20;1.10;;;11.50;99.90;;;;;;4974898;28;20190;-65
2020/12/22 05:16:57;;;;;;;1.33;1.20;;;11.60;99.90;;;;;;4975120;28;20187;-65
2020/12/22 05:19:24;;;;;;;1.30;1.20;;;11.60;99.90;;;;;;4975020;28;20206;-64
2020/12/22 05:21:52;;;;;;;3.00;1.65;;;11.60;99.90;;;;;;4975102;28;20195;-64
2020/12/22 05:24:18;;;;;;;2.58;2.15;;;11.70;99.90;;;;;;4974859;28;20188;-64
2020/12/22 05:26:45;;;;;;;2.65;1.90;;;11.70;99.90;;;;;;4974934;28;20300;-64
2020/12/22 05:29:12;;;;;;;2.25;1.77;;;11.80;99.90;;;;;;4975099;28;20190;-64
2020/12/22 05:31:49;;;;;;;3.45;2.75;;;11.90;99.90;;;;;;4973995;28;20250;-64
2020/12/22 05:34:16;;;;;;;5.53;2.58;;;12.00;99.90;;;;;;4974700;28;20179;-64
2020/12/22 05:36:43;;;;;;;3.85;3.47;;;12.10;99.90;;;;;;4975347;28;20175;-64
2020/12/22 05:39:10;;;;;;;3.53;3.05;;;12.10;99.90;;;;;;4974809;28;20522;-64
2020/12/22 05:41:37;;;;;;;4.82;3.35;;;12.20;99.90;;;;;;4974831;28;20180;-64
2020/12/22 05:44:04;;;;;;;3.85;3.42;;;12.10;99.90;;;;;;4974609;28;20238;-64
2020/12/22 05:46:31;;;;;;;3.58;3.28;;;12.20;99.90;;;;;;4973729;28;20215;-64
2020/12/22 05:49:02;;;;;;;4.78;4.00;;;12.30;99.90;;;;;;4974773;28;20193;-64
2020/12/22 05:51:28;;;;;;;4.80;3.97;;;12.30;99.90;;;;;;4974761;28;20400;-64
2020/12/22 05:53:54;;;;;;;5.90;4.70;;;12.30;99.90;;;;;;4974512;28;20475;-65
2020/12/22 05:56:23;;;;;;;5.35;3.85;;;12.30;99.90;;;;;;4974677;28;20177;-65
2020/12/22 05:58:51;;;;;;;4.57;3.88;;;12.30;99.90;;;;;;4974560;28;20282;-65
2020/12/22 06:01:29;;;;;;;4.32;3.92;;;12.40;99.90;;;;;;4974635;28;20609;-65
2020/12/22 06:03:55;;;;;;;5.20;4.50;;;12.40;99.90;;;;;;4974468;28;20255;-66
2020/12/22 06:06:22;;;;;;;3.95;3.40;;;12.40;99.90;;;;;;4975491;28;20386;-65
2020/12/22 06:08:50;;;;;;;6.03;4.20;;;12.40;99.90;;;;;;4978550;28;20177;-65
2020/12/22 06:11:15;;;;;;;4.20;3.50;;;12.40;99.90;;;;;;4978450;28;20178;-65
2020/12/22 06:13:41;;;;;;;5.50;3.40;;;12.50;99.90;;;;;;4978255;28;20187;-65
2020/12/22 06:16:19;;;;;;;6.93;4.00;;;12.50;99.90;;;;;;4978811;28;20263;-65
2020/12/22 06:18:46;;;;;;;7.35;4.35;;;12.50;99.90;;;;;;4978394;28;20187;-65
2020/12/22 06:21:15;;;;;;;4.68;3.95;;;12.50;99.90;;;;;;4978738;28;20188;-65
2020/12/22 06:23:41;;;;;;;6.18;4.30;;;12.50;99.90;;;;;;4978048;28;20503;-65
2020/12/22 06:26:06;;;;;;;5.30;4.60;;;12.50;99.90;;;;;;4978202;28;20188;-65
2020/12/22 06:28:32;;;;;;;5.47;4.30;;;12.50;99.90;;;;;;4977317;28;20255;-65
2020/12/22 06:30:58;;;;;;;4.47;3.57;;;12.60;99.90;;;;;;4978243;28;20192;-65
2020/12/22 06:33:34;;;;;;;3.80;3.40;;;12.60;99.90;;;;;;4977785;28;20443;-65
2020/12/22 06:36:08;;;;;;;3.80;3.17;;;12.60;99.90;;;;;;4977172;28;20438;-64
2020/12/22 06:38:56;;;;;;;2.95;2.72;;;12.60;99.90;;;;;;4978241;28;20184;-64
2020/12/22 06:41:28;;;;;;;2.72;2.45;;;12.70;99.90;;;;;;4978139;28;20173;-65
2020/12/22 06:43:55;;;;;;;2.63;2.40;;;12.60;99.90;;;;;;4977673;28;20177;-65
2020/12/22 06:46:32;;;;;;;2.10;1.90;;;12.60;99.90;;;;;;4977849;28;20177;-65
2020/12/22 06:48:58;;;;;;;2.38;2.00;;;12.60;99.90;;;;;;4977787;28;20192;-65
2020/12/22 06:51:28;;;;;;;2.43;2.20;;;12.60;99.90;;;;;;4977769;28;20177;-65
2020/12/22 06:53:54;;;;;;;1.88;1.77;;;12.60;99.90;;;;;;4977463;28;20175;-65
2020/12/22 06:56:58;;;;;;;3.50;2.78;;;12.60;99.90;;;;;;4977733;28;20618;-65
2020/12/22 06:59:44;;;;;;;2.63;2.42;;;12.50;99.90;;;;;;4937244;29;20289;-65
2020/12/22 07:02:39;;;;;;;2.70;2.13;;;12.60;99.90;;;;;;4937176;29;20227;-65
2020/12/22 07:05:06;;;;;;;2.40;2.20;;;12.60;99.90;;;;;;4953462;28;20207;-65
2020/12/22 07:08:02;;;;;;;2.38;2.08;;;12.70;99.90;;;;;;4977520;28;20266;-65
2020/12/22 07:10:28;;;;;;;4.07;2.80;;;12.60;99.90;;;;;;4969234;28;20568;-65
2020/12/22 07:12:58;;;;;;;2.45;2.25;;;12.60;99.90;;;;;;4977423;28;20315;-65
2020/12/22 07:15:37;;;;;;;2.92;2.63;;;12.70;99.90;;;;;;4977155;28;20178;-65
2020/12/22 07:18:33;;;;;;;2.25;2.05;;;12.70;99.90;;;;;;4975741;28;20266;-65
2020/12/22 07:21:00;;;;;;;4.15;2.40;;;12.60;99.90;;;;;;4977345;28;20181;-65
2020/12/22 07:23:25;;;;;;;2.53;2.33;;;12.60;99.90;;;;;;4976945;28;20185;-65
2020/12/22 07:25:51;;;;;;;2.83;2.53;;;12.70;99.90;;;;;;4977354;28;20196;-65
2020/12/22 07:28:17;;;;;;;3.07;2.50;;;12.70;99.90;;;;;;4977142;28;20347;-65
2020/12/22 07:30:43;;;;;;;2.70;2.40;;;12.70;99.90;;;;;;4977061;28;20615;-65
2020/12/22 07:33:09;;;;;;;2.93;2.70;;;12.70;99.90;;;;;;4976885;28;20433;-65
2020/12/22 07:35:34;;;;;;;2.77;2.20;;;12.70;99.90;;;;;;4976978;28;20416;-65
2020/12/22 07:38:10;;;;;;;2.50;2.10;;;12.80;99.90;;;;;;4976918;28;20255;-65
2020/12/22 07:40:40;;;;;;;2.72;2.47;;;12.80;99.90;;;;;;4976064;28;20184;-67
2020/12/22 07:43:13;;;;;;;5.07;3.60;;;12.80;99.90;;;;;;4976851;28;20194;-67
2020/12/22 07:45:48;;;;;;;1.88;1.70;;;12.80;99.90;;;;;;4976825;28;20192;-67
2020/12/22 07:48:14;;;;;;;2.75;2.17;;;12.80;99.90;;;;;;4976793;28;20209;-67
2020/12/22 07:50:40;;;;;;;2.07;1.87;;;12.90;99.90;;;;;;4976648;28;20680;-67
2020/12/22 07:53:05;;;;;;;1.83;1.73;;;12.80;99.90;;;;;;4976471;28;20220;-67
2020/12/22 07:55:38;;;;;;;1.80;1.60;;;12.80;99.90;;;;;;4976634;28;20632;-66
2020/12/22 07:58:05;;;;;;;2.45;1.83;;;12.80;99.90;;;;;;4981707;28;20186;-66
2020/12/22 08:00:31;;;;;;;2.28;1.90;;;12.80;99.90;;;;;;4980248;28;20193;-66
2020/12/22 08:03:10;;;;;;;1.70;1.60;;;12.80;99.90;;;;;;4977144;28;20190;-66
2020/12/22 08:05:36;;;;;;;2.28;1.42;;;12.80;99.90;;;;;;4985588;28;20970;-66
2020/12/22 08:08:01;;;;;;;1.40;1.13;;;12.90;99.90;;;;;;4983400;28;20205;-66
2020/12/22 08:10:26;;;;;;;1.17;1.07;;;12.80;99.90;;;;;;4982174;28;20184;-66
2020/12/22 08:12:53;;;;;;;1.40;1.10;;;12.80;99.90;;;;;;4985814;28;20184;-66
2020/12/22 08:15:19;;;;;;;1.15;1.05;;;12.80;99.90;;;;;;4985893;28;20200;-66
2020/12/22 08:17:48;;;;;;;1.10;0.87;;;12.80;99.90;;;;;;4984503;28;20184;-66
2020/12/22 08:20:14;;;;;;;1.60;1.40;;;12.80;99.90;;;;;;4985603;28;20428;-66
2020/12/22 08:22:43;;;;;;;1.10;0.85;;;12.90;99.90;;;;;;4984093;28;20197;-64
2020/12/22 08:25:10;;;;;;;1.10;1.00;;;12.80;99.90;;;;;;4980914;28;20590;-64
2020/12/22 08:27:36;;;;;;;2.65;2.22;;;12.90;99.90;;;;;;4985203;28;20201;-66
2020/12/22 08:30:19;;;;;;;1.40;1.17;;;12.90;99.90;;;;;;4983491;28;20235;-67
2020/12/22 08:32:45;;;;;;;1.25;1.15;;;12.90;99.90;;;;;;4983781;28;20590;-65
2020/12/22 08:35:11;;;;;;;1.40;1.30;;;12.90;99.90;;;;;;4982808;28;20199;-65
2020/12/22 08:37:37;;;;;;;1.33;1.20;;;12.90;99.90;;;;;;4983924;28;20234;-65
2020/12/22 08:40:04;;;;;;;2.20;1.50;;;12.90;99.90;;;;;;4984460;28;20189;-65
2020/12/22 08:42:31;;;;;;;1.33;1.23;;;12.90;99.90;;;;;;4979456;28;20247;-66
2020/12/22 08:44:56;;;;;;;2.05;1.77;;;12.90;99.90;;;;;;4983596;28;20201;-65
2020/12/22 08:47:22;;;;;;;30.13;17.20;;;12.90;99.90;;;;;;4974850;28;20608;-66
2020/12/22 08:49:48;;;;;;;2.57;2.37;;;13.00;99.90;;;;;;4975354;28;20203;-66
2020/12/22 08:52:18;;;;;;;1.23;1.13;;;13.00;99.90;;;;;;4975324;28;20500;-65
2020/12/22 08:55:00;;;;;;;4.82;2.47;;;13.10;99.90;;;;;;4975139;28;20490;-66
2020/12/22 08:57:29;;;;;;;1.40;1.20;;;13.10;99.90;;;;;;4975341;28;20192;-66
2020/12/22 08:59:54;;;;;;;2.10;1.63;;;13.10;99.90;;;;;;4974811;28;20665;-65
2020/12/22 09:02:30;;;;;;;0.60;0.50;;;13.10;99.90;;;;;;4975167;28;20246;-64
2020/12/22 09:05:11;;;;;;;1.20;0.88;;;13.10;99.90;;;;;;4973539;28;20613;-65
2020/12/22 09:07:36;;;;;;;2.58;0.77;;;13.10;99.90;;;;;;4972887;28;20342;-65
2020/12/22 09:10:09;;;;;;;1.37;0.90;;;13.10;99.90;;;;;;4976028;28;20310;-63
2020/12/22 09:12:35;;;;;;;1.60;1.15;;;13.10;99.90;;;;;;4981212;28;20629;-65
2020/12/22 09:15:01;;;;;;;1.33;1.02;;;13.20;99.90;;;;;;4981152;28;20188;-63
2020/12/22 09:17:31;;;;;;;1.40;1.30;;;13.20;99.90;;;;;;4983972;28;20182;-66
2020/12/22 09:19:58;;;;;;;2.90;1.98;;;13.10;99.90;;;;;;4977293;28;20189;-62
2020/12/22 09:22:25;;;;;;;2.08;1.52;;;13.10;99.90;;;;;;4974628;28;20189;-62
2020/12/22 09:24:55;;;;;;;2.20;1.25;;;13.10;99.90;;;;;;4973281;28;20186;-64
2020/12/22 09:27:36;;;;;;;3.15;1.63;;;13.10;99.90;;;;;;4974497;28;20209;-67
2020/12/22 09:30:11;;;;;;;2.50;1.80;;;13.30;99.90;;;;;;4974619;28;20610;-66
2020/12/22 09:32:37;;;;;;;1.73;1.35;;;13.30;99.90;;;;;;4970060;28;20208;-66
2020/12/22 09:35:05;;;;;;;2.33;2.00;;;13.40;99.90;;;;;;4973959;28;20635;-63
2020/12/22 09:37:31;;;;;;;1.85;1.38;;;13.30;99.90;;;;;;4979137;28;20428;-63
2020/12/22 09:39:56;;;;;;;1.20;1.10;;;13.30;99.90;;;;;;4979536;28;20192;-64
2020/12/22 09:42:24;;;;;;;2.03;1.37;;;13.30;99.90;;;;;;4980320;28;20221;-63
2020/12/22 09:44:50;;;;;;;1.60;1.25;;;13.50;99.90;;;;;;4984424;28;20196;-63
2020/12/22 09:47:17;;;;;;;1.33;1.15;;;13.40;99.90;;;;;;4984701;28;20199;-64
2020/12/22 09:49:43;;;;;;;1.15;0.85;;;13.30;99.90;;;;;;4997440;28;20240;-64
2020/12/22 09:52:09;;;;;;;2.80;1.20;;;13.30;99.90;;;;;;5009400;28;20187;-64
2020/12/22 09:54:34;;;;;;;1.53;1.00;;;13.30;99.90;;;;;;5011124;28;20189;-64
2020/12/22 09:57:00;;;;;;;1.27;1.17;;;13.30;99.90;;;;;;5007082;28;20181;-63
2020/12/22 09:59:26;;;;;;;1.60;1.20;;;13.40;99.90;;;;;;4999459;28;20197;-63
2020/12/22 10:01:52;;;;;;;2.30;1.13;;;13.40;99.90;;;;;;4985999;28;20756;-64
2020/12/22 10:04:18;;;;;;;2.50;0.90;;;13.50;99.90;;;;;;4984636;28;20192;-64
2020/12/22 10:06:44;;;;;;;1.77;1.30;;;13.50;99.90;;;;;;4988618;28;20746;-62
2020/12/22 10:09:13;;;;;;;2.00;1.27;;;13.50;99.90;;;;;;4984240;28;20444;-63
2020/12/22 10:11:39;;;;;;;1.48;1.10;;;13.50;99.90;;;;;;4985588;28;20446;-62
2020/12/22 10:14:06;;;;;;;2.53;2.27;;;13.30;99.90;;;;;;4984840;28;20626;-61
2020/12/22 10:16:33;;;;;;;3.38;1.40;;;13.50;99.90;;;;;;4995434;28;20178;-60
2020/12/22 10:18:59;;;;;;;1.77;1.08;;;13.30;99.90;;;;;;4991387;28;20188;-62
2020/12/22 10:21:24;;;;;;;2.30;1.10;;;13.30;99.90;;;;;;4996300;28;20189;-61
2020/12/22 10:23:52;;;;;;;3.43;1.27;;;13.30;99.90;;;;;;4984016;28;20205;-61
2020/12/22 10:26:19;;;;;;;2.90;1.20;;;13.30;99.90;;;;;;4984758;28;20604;-60
2020/12/22 10:28:47;;;;;;;1.88;1.30;;;13.30;99.90;;;;;;4986685;28;20191;-61
2020/12/22 10:31:15;;;;;;;1.90;1.08;;;13.30;99.90;;;;;;4998087;28;20178;-62
2020/12/22 10:33:41;;;;;;;4.10;2.90;;;13.30;99.90;;;;;;4998782;28;20195;-63
2020/12/22 10:36:10;;;;;;;2.17;1.98;;;13.30;99.90;;;;;;4990186;28;20274;-65
2020/12/22 10:38:35;;;;;;;2.60;2.38;;;13.20;99.90;;;;;;4977667;28;20550;-63
2020/12/22 10:41:01;;;;;;;1.43;1.03;;;13.30;99.90;;;;;;4977795;28;20673;-62
2020/12/22 10:43:27;;;;;;;1.10;1.00;;;13.30;99.90;;;;;;4976403;28;20189;-62
2020/12/22 10:45:53;;;;;;;2.63;1.90;;;13.20;99.90;;;;;;4975338;28;20187;-62
2020/12/22 10:48:19;;;;;;;1.80;1.40;;;13.20;99.90;;;;;;4976038;28;20276;-63
2020/12/22 10:50:44;;;;;;;1.50;1.30;;;13.20;99.90;;;;;;4976067;28;20633;-64
2020/12/22 10:53:10;;;;;;;1.40;1.20;;;13.40;99.90;;;;;;4977941;28;20189;-65
2020/12/22 10:55:35;;;;;;;1.10;1.00;;;13.40;99.90;;;;;;4999834;28;20212;-68
2020/12/22 10:58:02;;;;;;;1.60;1.13;;;13.70;99.90;;;;;;4981355;28;20216;-66
2020/12/22 11:00:28;;;;;;;1.52;0.95;;;13.70;99.90;;;;;;4991165;28;20189;-66
2020/12/22 11:02:55;;;;;;;1.33;1.20;;;13.70;99.90;;;;;;4976162;28;20194;-66
2020/12/22 11:08:06;;;;;;;3.15;0.70;;;13.20;99.90;;;;;;4977251;28;20251;-64
2020/12/22 11:10:32;;;;;;;2.20;0.82;;;12.90;99.90;;;;;;4977319;28;20514;-64
2020/12/22 11:12:58;;;;;;;1.00;0.60;;;12.60;99.90;;;;;;4977710;28;20180;-62
2020/12/22 11:15:23;;;;;;;1.70;0.60;;;12.10;99.90;;;;;;4977227;28;20199;-62
2020/12/22 11:17:49;;;;;;;0.60;0.50;;;11.70;99.90;;;;;;4976446;28;20214;-62
2020/12/22 11:20:15;;;;;;;1.20;0.83;;;11.50;99.90;;;;;;4977641;28;20180;-62
2020/12/22 11:22:40;;;;;;;1.20;1.00;;;11.50;99.90;;;;;;4981570;28;20425;-65
2020/12/22 11:25:06;;;;;;;1.57;0.97;;;11.30;99.90;;;;;;4985510;28;20484;-65
2020/12/22 11:27:31;;;;;;;1.70;1.10;;;11.20;99.90;;;;;;4973796;28;20560;-65
2020/12/22 11:29:57;;;;;;;2.03;1.07;;;11.10;99.90;;;;;;4967795;28;20192;-65
2020/12/22 11:32:22;;;;;;;2.10;1.60;;;11.40;99.90;;;;;;4974464;28;20190;-65
2020/12/22 11:34:48;;;;;;;2.13;1.93;;;11.30;99.90;;;;;;4971664;28;20208;-63
2020/12/22 11:37:13;;;;;;;2.37;1.93;;;11.30;99.90;;;;;;4974555;28;20199;-63
2020/12/22 11:39:39;;;;;;;2.67;2.47;;;11.20;99.90;;;;;;4982261;28;20188;-63
2020/12/22 11:42:05;;;;;;;2.50;2.20;;;11.20;99.90;;;;;;4976978;28;20283;-63
2020/12/22 11:44:31;;;;;;;5.78;2.40;;;11.00;99.90;;;;;;4976492;28;20192;-63
2020/12/22 11:46:57;;;;;;;2.40;1.80;;;10.80;99.90;;;;;;4976250;28;20200;-63
2020/12/22 11:49:24;;;;;;;2.43;1.50;;;10.80;99.90;;;;;;4976928;28;20175;-64
2020/12/22 11:51:55;;;;;;;3.47;1.83;;;10.70;99.90;;;;;;4977281;28;20787;-64
2020/12/22 11:54:21;;;;;;;2.58;2.00;;;10.80;99.90;;;;;;4976076;28;20235;-64
2020/12/22 11:56:47;;;;;;;2.47;1.83;;;10.70;99.90;;;;;;4976818;28;20691;-64
2020/12/22 11:59:13;;;;;;;2.90;2.07;;;10.80;99.90;;;;;;4976440;28;20282;-63
2020/12/22 12:01:38;;;;;;;3.70;2.40;;;10.80;99.90;;;;;;4983787;28;20445;-62
2020/12/22 12:04:04;;;;;;;3.40;3.03;;;10.70;99.90;;;;;;4995638;28;20833;-63
2020/12/22 12:06:29;;;;;;;3.27;2.33;;;10.70;99.90;;;;;;4990422;28;20209;-63
2020/12/22 12:08:55;;;;;;;5.80;2.87;;;10.60;99.90;;;;;;4976122;28;20206;-63
2020/12/22 12:11:20;;;;;;;7.03;2.90;;;10.50;99.90;;;;;;4978638;28;20188;-63
2020/12/22 12:13:46;;;;;;;5.97;3.60;;;10.60;99.90;;;;;;4986172;28;20527;-64
2020/12/22 12:16:16;;;;;;;4.43;2.90;;;10.60;99.90;;;;;;4982026;28;20488;-64
2020/12/22 12:18:41;;;;;;;4.20;2.40;;;10.60;99.90;;;;;;4976106;28;20180;-64
2020/12/22 12:21:07;;;;;;;7.70;3.33;;;10.50;99.90;;;;;;4976376;28;20194;-65
2020/12/22 12:23:32;;;;;;;3.27;1.97;;;10.50;99.90;;;;;;4976069;28;20565;-65
2020/12/22 12:25:58;;;;;;;5.27;2.50;;;10.40;99.90;;;;;;4975499;28;20529;-65
2020/12/22 12:28:24;;;;;;;6.03;2.87;;;10.20;99.90;;;;;;4975786;28;20239;-64
2020/12/22 12:30:50;;;;;;;5.13;2.60;;;10.30;99.90;;;;;;4975076;28;20503;-63
2020/12/22 12:33:16;;;;;;;5.80;3.00;;;10.30;99.90;;;;;;4979718;28;20184;-63
2020/12/22 12:35:41;;;;;;;4.70;2.90;;;10.30;99.90;;;;;;4981505;28;20184;-59
2020/12/22 12:38:07;;;;;;;2.97;1.67;;;10.40;99.90;;;;;;4978415;28;20197;-60
2020/12/22 12:40:32;;;;;;;8.57;2.90;;;10.30;99.90;;;;;;4975954;28;20294;-60
2020/12/22 12:42:59;;;;;;;1.70;1.20;;;10.10;99.90;;;;;;4972124;28;20192;-61
2020/12/22 12:45:24;;;;;;;3.85;2.63;;;10.10;99.90;;;;;;4962657;28;20193;-61
2020/12/22 12:47:50;;;;;;;14.43;8.10;;;10.30;99.90;;;;;;4973967;28;20196;-61
2020/12/22 12:50:15;;;;;;;2.47;1.60;;;10.40;70.00;;;;;;4974304;28;20275;-61
2020/12/22 12:52:41;;;;;;;3.70;1.73;;;10.40;56.30;;;;;;4974332;28;20210;-61
2020/12/22 12:55:07;;;;;;;2.27;1.30;;;10.50;31.80;;;;;;4975608;28;20200;-61